sensor_id;sensor_type;location;lat;lon;timestamp;P1;durP1;ratioP1;P2;durP2;ratioP2
49223;SDS011;35050;51.316;5.994;2024-01-30T00:01:15;10.50;;;7.95;;
49223;SDS011;35050;51.316;5.994;2024-01-30T00:03:40;10.05;;;7.80;;
49223;SDS011;35050;51.316;5.994;2024-01-30T00:06:06;9.85;;;7.38;;
49223;SDS011;35050;51.316;5.994;2024-01-30T00:08:36;10.15;;;7.55;;
49223;SDS011;35050;51.316;5.994;2024-01-30T00:11:01;11.75;;;8.75;;
49223;SDS011;35050;51.316;5.994;2024-01-30T00:13:27;8.88;;;7.07;;
49223;SDS011;35050;51.316;5.994;2024-01-30T00:15:52;11.20;;;7.45;;
49223;SDS011;35050;51.316;5.994;2024-01-30T00:18:19;9.25;;;7.00;;
49223;SDS011;35050;51.316;5.994;2024-01-30T00:20:44;12.60;;;7.68;;
49223;SDS011;35050;51.316;5.994;2024-01-30T00:23:10;11.48;;;8.90;;
49223;SDS011;35050;51.316;5.994;2024-01-30T00:25:36;15.57;;;8.18;;
49223;SDS011;35050;51.316;5.994;2024-01-30T00:28:02;12.55;;;7.97;;
49223;SDS011;35050;51.316;5.994;2024-01-30T00:30:27;9.90;;;7.57;;
49223;SDS011;35050;51.316;5.994;2024-01-30T00:32:53;10.48;;;7.43;;
49223;SDS011;35050;51.316;5.994;2024-01-30T00:35:19;9.57;;;7.47;;
49223;SDS011;35050;51.316;5.994;2024-01-30T00:37:47;11.98;;;7.50;;
49223;SDS011;35050;51.316;5.994;2024-01-30T00:40:12;11.18;;;7.65;;
49223;SDS011;35050;51.316;5.994;2024-01-30T00:42:41;8.77;;;7.03;;
49223;SDS011;35050;51.316;5.994;2024-01-30T00:45:11;8.15;;;6.47;;
49223;SDS011;35050;51.316;5.994;2024-01-30T00:47:38;9.68;;;6.15;;
49223;SDS011;35050;51.316;5.994;2024-01-30T00:50:04;8.80;;;6.60;;
49223;SDS011;35050;51.316;5.994;2024-01-30T00:52:30;8.30;;;6.38;;
49223;SDS011;35050;51.316;5.994;2024-01-30T00:54:55;9.27;;;6.85;;
49223;SDS011;35050;51.316;5.994;2024-01-30T00:57:21;11.80;;;7.07;;
49223;SDS011;35050;51.316;5.994;2024-01-30T00:59:47;9.70;;;7.13;;
49223;SDS011;35050;51.316;5.994;2024-01-30T01:02:12;9.70;;;7.75;;
49223;SDS011;35050;51.316;5.994;2024-01-30T01:04:38;10.05;;;7.88;;
49223;SDS011;35050;51.316;5.994;2024-01-30T01:07:04;9.00;;;6.70;;
49223;SDS011;35050;51.316;5.994;2024-01-30T01:09:30;10.10;;;7.53;;
49223;SDS011;35050;51.316;5.994;2024-01-30T01:11:55;8.95;;;7.07;;
49223;SDS011;35050;51.316;5.994;2024-01-30T01:14:21;8.95;;;7.13;;
49223;SDS011;35050;51.316;5.994;2024-01-30T01:16:46;11.80;;;7.50;;
49223;SDS011;35050;51.316;5.994;2024-01-30T01:19:12;12.35;;;8.02;;
49223;SDS011;35050;51.316;5.994;2024-01-30T01:21:37;10.68;;;8.02;;
49223;SDS011;35050;51.316;5.994;2024-01-30T01:24:03;11.02;;;7.70;;
49223;SDS011;35050;51.316;5.994;2024-01-30T01:26:29;11.32;;;7.70;;
49223;SDS011;35050;51.316;5.994;2024-01-30T01:28:55;10.48;;;7.63;;
49223;SDS011;35050;51.316;5.994;2024-01-30T01:31:20;11.07;;;7.05;;
49223;SDS011;35050;51.316;5.994;2024-01-30T01:33:49;11.85;;;8.10;;
49223;SDS011;35050;51.316;5.994;2024-01-30T01:36:15;14.82;;;7.57;;
49223;SDS011;35050;51.316;5.994;2024-01-30T01:38:41;9.75;;;7.47;;
49223;SDS011;35050;51.316;5.994;2024-01-30T01:41:06;10.77;;;7.55;;
49223;SDS011;35050;51.316;5.994;2024-01-30T01:43:32;10.05;;;7.38;;
49223;SDS011;35050;51.316;5.994;2024-01-30T01:45:57;12.23;;;8.07;;
49223;SDS011;35050;51.316;5.994;2024-01-30T01:48:23;12.40;;;7.70;;
49223;SDS011;35050;51.316;5.994;2024-01-30T01:50:49;11.63;;;7.45;;
49223;SDS011;35050;51.316;5.994;2024-01-30T01:53:16;11.23;;;7.47;;
49223;SDS011;35050;51.316;5.994;2024-01-30T01:55:42;9.70;;;7.40;;
49223;SDS011;35050;51.316;5.994;2024-01-30T01:58:08;12.90;;;7.55;;
49223;SDS011;35050;51.316;5.994;2024-01-30T02:00:35;11.73;;;7.40;;
49223;SDS011;35050;51.316;5.994;2024-01-30T02:03:04;9.95;;;7.32;;
49223;SDS011;35050;51.316;5.994;2024-01-30T02:05:31;10.13;;;7.20;;
49223;SDS011;35050;51.316;5.994;2024-01-30T02:07:57;10.68;;;7.10;;
49223;SDS011;35050;51.316;5.994;2024-01-30T02:10:23;10.50;;;7.22;;
49223;SDS011;35050;51.316;5.994;2024-01-30T02:12:49;10.20;;;7.20;;
49223;SDS011;35050;51.316;5.994;2024-01-30T02:15:15;10.07;;;6.90;;
49223;SDS011;35050;51.316;5.994;2024-01-30T02:17:40;10.38;;;8.00;;
49223;SDS011;35050;51.316;5.994;2024-01-30T02:20:06;11.23;;;7.75;;
49223;SDS011;35050;51.316;5.994;2024-01-30T02:22:32;10.40;;;7.60;;
49223;SDS011;35050;51.316;5.994;2024-01-30T02:25:00;10.25;;;7.88;;
49223;SDS011;35050;51.316;5.994;2024-01-30T02:27:25;8.93;;;6.95;;
49223;SDS011;35050;51.316;5.994;2024-01-30T02:29:51;12.15;;;7.45;;
49223;SDS011;35050;51.316;5.994;2024-01-30T02:32:17;10.55;;;7.32;;
49223;SDS011;35050;51.316;5.994;2024-01-30T02:34:42;8.60;;;7.43;;
49223;SDS011;35050;51.316;5.994;2024-01-30T02:37:08;11.38;;;7.57;;
49223;SDS011;35050;51.316;5.994;2024-01-30T02:39:34;8.93;;;6.38;;
49223;SDS011;35050;51.316;5.994;2024-01-30T02:41:59;9.80;;;6.97;;
49223;SDS011;35050;51.316;5.994;2024-01-30T02:44:25;10.75;;;8.07;;
49223;SDS011;35050;51.316;5.994;2024-01-30T02:46:50;10.27;;;7.25;;
49223;SDS011;35050;51.316;5.994;2024-01-30T02:49:16;9.30;;;6.50;;
49223;SDS011;35050;51.316;5.994;2024-01-30T02:51:42;9.70;;;7.00;;
49223;SDS011;35050;51.316;5.994;2024-01-30T02:54:08;9.13;;;6.38;;
49223;SDS011;35050;51.316;5.994;2024-01-30T02:56:33;7.32;;;6.28;;
49223;SDS011;35050;51.316;5.994;2024-01-30T02:58:59;11.85;;;7.35;;
49223;SDS011;35050;51.316;5.994;2024-01-30T03:01:24;10.82;;;7.13;;
49223;SDS011;35050;51.316;5.994;2024-01-30T03:03:50;8.10;;;6.45;;
49223;SDS011;35050;51.316;5.994;2024-01-30T03:06:16;10.93;;;6.93;;
49223;SDS011;35050;51.316;5.994;2024-01-30T03:08:42;10.18;;;7.05;;
49223;SDS011;35050;51.316;5.994;2024-01-30T03:11:08;11.73;;;6.82;;
49223;SDS011;35050;51.316;5.994;2024-01-30T03:13:33;12.73;;;6.97;;
49223;SDS011;35050;51.316;5.994;2024-01-30T03:15:59;11.60;;;6.40;;
49223;SDS011;35050;51.316;5.994;2024-01-30T03:18:25;10.88;;;6.95;;
49223;SDS011;35050;51.316;5.994;2024-01-30T03:20:50;7.30;;;5.57;;
49223;SDS011;35050;51.316;5.994;2024-01-30T03:23:16;8.73;;;6.25;;
49223;SDS011;35050;51.316;5.994;2024-01-30T03:25:41;7.30;;;5.93;;
49223;SDS011;35050;51.316;5.994;2024-01-30T03:28:07;8.35;;;6.45;;
49223;SDS011;35050;51.316;5.994;2024-01-30T03:30:34;9.63;;;5.88;;
49223;SDS011;35050;51.316;5.994;2024-01-30T03:32:59;8.43;;;6.25;;
49223;SDS011;35050;51.316;5.994;2024-01-30T03:35:25;10.68;;;6.78;;
49223;SDS011;35050;51.316;5.994;2024-01-30T03:37:51;9.27;;;6.07;;
49223;SDS011;35050;51.316;5.994;2024-01-30T03:40:16;8.38;;;6.28;;
49223;SDS011;35050;51.316;5.994;2024-01-30T03:42:42;8.65;;;5.95;;
49223;SDS011;35050;51.316;5.994;2024-01-30T03:45:08;8.10;;;6.10;;
49223;SDS011;35050;51.316;5.994;2024-01-30T03:47:33;7.72;;;5.32;;
49223;SDS011;35050;51.316;5.994;2024-01-30T03:49:59;7.25;;;5.63;;
49223;SDS011;35050;51.316;5.994;2024-01-30T03:52:25;8.32;;;5.90;;
49223;SDS011;35050;51.316;5.994;2024-01-30T03:54:50;8.35;;;5.85;;
49223;SDS011;35050;51.316;5.994;2024-01-30T03:57:16;8.70;;;5.68;;
49223;SDS011;35050;51.316;5.994;2024-01-30T03:59:45;7.35;;;5.50;;
49223;SDS011;35050;51.316;5.994;2024-01-30T04:02:10;8.27;;;5.07;;
49223;SDS011;35050;51.316;5.994;2024-01-30T04:04:36;7.80;;;5.60;;
49223;SDS011;35050;51.316;5.994;2024-01-30T04:07:02;8.07;;;5.95;;
49223;SDS011;35050;51.316;5.994;2024-01-30T04:09:28;7.32;;;5.70;;
49223;SDS011;35050;51.316;5.994;2024-01-30T04:11:54;7.30;;;5.85;;
49223;SDS011;35050;51.316;5.994;2024-01-30T04:14:19;6.70;;;4.95;;
49223;SDS011;35050;51.316;5.994;2024-01-30T04:16:45;6.70;;;4.88;;
49223;SDS011;35050;51.316;5.994;2024-01-30T04:19:11;8.18;;;5.20;;
49223;SDS011;35050;51.316;5.994;2024-01-30T04:21:36;8.10;;;5.15;;
49223;SDS011;35050;51.316;5.994;2024-01-30T04:24:02;8.10;;;5.05;;
49223;SDS011;35050;51.316;5.994;2024-01-30T04:26:28;8.60;;;5.13;;
49223;SDS011;35050;51.316;5.994;2024-01-30T04:28:53;6.90;;;5.55;;
49223;SDS011;35050;51.316;5.994;2024-01-30T04:31:19;5.72;;;4.65;;
49223;SDS011;35050;51.316;5.994;2024-01-30T04:33:44;7.38;;;5.57;;
49223;SDS011;35050;51.316;5.994;2024-01-30T04:36:10;6.47;;;4.88;;
49223;SDS011;35050;51.316;5.994;2024-01-30T04:38:36;6.80;;;4.68;;
49223;SDS011;35050;51.316;5.994;2024-01-30T04:41:03;5.18;;;4.45;;
49223;SDS011;35050;51.316;5.994;2024-01-30T04:43:29;6.53;;;4.65;;
49223;SDS011;35050;51.316;5.994;2024-01-30T04:45:55;6.75;;;4.95;;
49223;SDS011;35050;51.316;5.994;2024-01-30T04:48:20;7.70;;;5.25;;
49223;SDS011;35050;51.316;5.994;2024-01-30T04:50:46;8.55;;;4.95;;
49223;SDS011;35050;51.316;5.994;2024-01-30T04:53:12;6.97;;;4.80;;
49223;SDS011;35050;51.316;5.994;2024-01-30T04:55:37;7.20;;;4.93;;
49223;SDS011;35050;51.316;5.994;2024-01-30T04:58:03;5.90;;;4.75;;
49223;SDS011;35050;51.316;5.994;2024-01-30T05:00:29;8.77;;;4.70;;
49223;SDS011;35050;51.316;5.994;2024-01-30T05:02:55;7.75;;;5.25;;
49223;SDS011;35050;51.316;5.994;2024-01-30T05:05:21;8.98;;;5.10;;
49223;SDS011;35050;51.316;5.994;2024-01-30T05:07:47;6.47;;;4.95;;
49223;SDS011;35050;51.316;5.994;2024-01-30T05:10:13;6.85;;;5.05;;
49223;SDS011;35050;51.316;5.994;2024-01-30T05:12:39;5.40;;;4.65;;
49223;SDS011;35050;51.316;5.994;2024-01-30T05:15:05;9.52;;;5.60;;
49223;SDS011;35050;51.316;5.994;2024-01-30T05:17:31;6.93;;;5.22;;
49223;SDS011;35050;51.316;5.994;2024-01-30T05:19:57;7.38;;;5.20;;
49223;SDS011;35050;51.316;5.994;2024-01-30T05:22:22;9.32;;;5.00;;
49223;SDS011;35050;51.316;5.994;2024-01-30T05:24:48;5.43;;;4.60;;
49223;SDS011;35050;51.316;5.994;2024-01-30T05:27:14;8.90;;;5.28;;
49223;SDS011;35050;51.316;5.994;2024-01-30T05:29:39;6.35;;;4.50;;
49223;SDS011;35050;51.316;5.994;2024-01-30T05:32:06;6.45;;;4.47;;
49223;SDS011;35050;51.316;5.994;2024-01-30T05:34:31;6.68;;;4.57;;
49223;SDS011;35050;51.316;5.994;2024-01-30T05:36:57;10.18;;;5.63;;
49223;SDS011;35050;51.316;5.994;2024-01-30T05:39:23;8.20;;;4.30;;
49223;SDS011;35050;51.316;5.994;2024-01-30T05:41:49;7.00;;;4.85;;
49223;SDS011;35050;51.316;5.994;2024-01-30T05:44:15;6.40;;;4.47;;
49223;SDS011;35050;51.316;5.994;2024-01-30T05:46:41;7.05;;;4.97;;
49223;SDS011;35050;51.316;5.994;2024-01-30T05:49:06;11.30;;;5.75;;
49223;SDS011;35050;51.316;5.994;2024-01-30T05:51:32;9.43;;;5.15;;
49223;SDS011;35050;51.316;5.994;2024-01-30T05:53:58;7.40;;;5.32;;
49223;SDS011;35050;51.316;5.994;2024-01-30T05:56:23;9.10;;;4.97;;
49223;SDS011;35050;51.316;5.994;2024-01-30T05:58:49;6.97;;;4.63;;
49223;SDS011;35050;51.316;5.994;2024-01-30T06:01:15;7.78;;;4.95;;
49223;SDS011;35050;51.316;5.994;2024-01-30T06:03:41;5.80;;;4.55;;
49223;SDS011;35050;51.316;5.994;2024-01-30T06:06:08;7.15;;;4.80;;
49223;SDS011;35050;51.316;5.994;2024-01-30T06:08:34;6.45;;;4.38;;
49223;SDS011;35050;51.316;5.994;2024-01-30T06:11:00;6.90;;;4.57;;
49223;SDS011;35050;51.316;5.994;2024-01-30T06:13:26;5.00;;;3.78;;
49223;SDS011;35050;51.316;5.994;2024-01-30T06:15:52;6.60;;;4.53;;
49223;SDS011;35050;51.316;5.994;2024-01-30T06:18:17;4.60;;;3.85;;
49223;SDS011;35050;51.316;5.994;2024-01-30T06:20:43;5.03;;;3.70;;
49223;SDS011;35050;51.316;5.994;2024-01-30T06:23:09;6.82;;;3.97;;
49223;SDS011;35050;51.316;5.994;2024-01-30T06:25:35;6.95;;;4.68;;
49223;SDS011;35050;51.316;5.994;2024-01-30T06:28:00;5.57;;;4.63;;
49223;SDS011;35050;51.316;5.994;2024-01-30T06:30:26;8.02;;;4.88;;
49223;SDS011;35050;51.316;5.994;2024-01-30T06:32:52;6.03;;;4.72;;
49223;SDS011;35050;51.316;5.994;2024-01-30T06:35:17;7.90;;;5.15;;
49223;SDS011;35050;51.316;5.994;2024-01-30T06:37:43;9.95;;;5.25;;
49223;SDS011;35050;51.316;5.994;2024-01-30T06:40:09;10.25;;;4.93;;
49223;SDS011;35050;51.316;5.994;2024-01-30T06:42:35;6.07;;;4.50;;
49223;SDS011;35050;51.316;5.994;2024-01-30T06:45:00;8.05;;;4.57;;
49223;SDS011;35050;51.316;5.994;2024-01-30T06:47:26;7.75;;;5.38;;
49223;SDS011;35050;51.316;5.994;2024-01-30T06:49:52;9.18;;;5.00;;
49223;SDS011;35050;51.316;5.994;2024-01-30T06:52:17;7.32;;;4.78;;
49223;SDS011;35050;51.316;5.994;2024-01-30T06:54:43;6.07;;;4.30;;
49223;SDS011;35050;51.316;5.994;2024-01-30T06:57:09;5.55;;;4.47;;
49223;SDS011;35050;51.316;5.994;2024-01-30T06:59:36;8.75;;;5.22;;
49223;SDS011;35050;51.316;5.994;2024-01-30T07:02:08;8.18;;;4.72;;
49223;SDS011;35050;51.316;5.994;2024-01-30T07:04:34;7.45;;;5.43;;
49223;SDS011;35050;51.316;5.994;2024-01-30T07:07:00;7.60;;;4.90;;
49223;SDS011;35050;51.316;5.994;2024-01-30T07:09:25;5.90;;;4.75;;
49223;SDS011;35050;51.316;5.994;2024-01-30T07:11:53;7.03;;;4.43;;
49223;SDS011;35050;51.316;5.994;2024-01-30T07:14:20;8.80;;;5.13;;
49223;SDS011;35050;51.316;5.994;2024-01-30T07:16:46;5.90;;;4.20;;
49223;SDS011;35050;51.316;5.994;2024-01-30T07:19:11;5.68;;;4.82;;
49223;SDS011;35050;51.316;5.994;2024-01-30T07:21:37;6.00;;;4.20;;
49223;SDS011;35050;51.316;5.994;2024-01-30T07:24:05;5.45;;;4.22;;
49223;SDS011;35050;51.316;5.994;2024-01-30T07:26:31;4.90;;;4.22;;
49223;SDS011;35050;51.316;5.994;2024-01-30T07:28:57;5.75;;;4.28;;
49223;SDS011;35050;51.316;5.994;2024-01-30T07:31:22;6.20;;;3.75;;
49223;SDS011;35050;51.316;5.994;2024-01-30T07:33:48;6.50;;;3.78;;
49223;SDS011;35050;51.316;5.994;2024-01-30T07:36:14;5.15;;;3.75;;
49223;SDS011;35050;51.316;5.994;2024-01-30T07:38:39;4.75;;;3.55;;
49223;SDS011;35050;51.316;5.994;2024-01-30T07:41:05;5.43;;;3.55;;
49223;SDS011;35050;51.316;5.994;2024-01-30T07:43:31;5.30;;;3.53;;
49223;SDS011;35050;51.316;5.994;2024-01-30T07:45:56;7.15;;;3.80;;
49223;SDS011;35050;51.316;5.994;2024-01-30T07:48:22;6.18;;;3.80;;
49223;SDS011;35050;51.316;5.994;2024-01-30T07:50:48;8.25;;;4.47;;
49223;SDS011;35050;51.316;5.994;2024-01-30T07:53:13;5.65;;;3.70;;
49223;SDS011;35050;51.316;5.994;2024-01-30T07:55:39;4.57;;;3.78;;
49223;SDS011;35050;51.316;5.994;2024-01-30T07:58:04;5.40;;;3.85;;
49223;SDS011;35050;51.316;5.994;2024-01-30T08:00:30;9.10;;;4.20;;
49223;SDS011;35050;51.316;5.994;2024-01-30T08:02:56;6.00;;;3.95;;
49223;SDS011;35050;51.316;5.994;2024-01-30T08:05:22;6.85;;;3.78;;
49223;SDS011;35050;51.316;5.994;2024-01-30T08:07:48;10.15;;;3.88;;
49223;SDS011;35050;51.316;5.994;2024-01-30T08:10:14;6.60;;;3.67;;
49223;SDS011;35050;51.316;5.994;2024-01-30T08:12:40;5.22;;;3.72;;
49223;SDS011;35050;51.316;5.994;2024-01-30T08:15:06;6.80;;;3.83;;
49223;SDS011;35050;51.316;5.994;2024-01-30T08:17:32;5.25;;;4.15;;
49223;SDS011;35050;51.316;5.994;2024-01-30T08:19:58;7.10;;;4.15;;
49223;SDS011;35050;51.316;5.994;2024-01-30T08:22:24;7.60;;;4.43;;
49223;SDS011;35050;51.316;5.994;2024-01-30T08:24:50;7.47;;;4.60;;
49223;SDS011;35050;51.316;5.994;2024-01-30T08:27:16;5.80;;;4.18;;
49223;SDS011;35050;51.316;5.994;2024-01-30T08:29:41;6.53;;;4.40;;
49223;SDS011;35050;51.316;5.994;2024-01-30T08:32:07;6.53;;;4.32;;
49223;SDS011;35050;51.316;5.994;2024-01-30T08:34:33;7.85;;;4.53;;
49223;SDS011;35050;51.316;5.994;2024-01-30T08:36:59;6.28;;;3.78;;
49223;SDS011;35050;51.316;5.994;2024-01-30T08:39:24;6.18;;;4.03;;
49223;SDS011;35050;51.316;5.994;2024-01-30T08:41:50;6.22;;;4.55;;
49223;SDS011;35050;51.316;5.994;2024-01-30T08:44:16;7.50;;;4.40;;
49223;SDS011;35050;51.316;5.994;2024-01-30T08:46:42;7.78;;;4.63;;
49223;SDS011;35050;51.316;5.994;2024-01-30T08:49:11;6.43;;;4.40;;
49223;SDS011;35050;51.316;5.994;2024-01-30T08:51:38;7.57;;;5.25;;
49223;SDS011;35050;51.316;5.994;2024-01-30T08:54:04;8.90;;;4.43;;
49223;SDS011;35050;51.316;5.994;2024-01-30T08:56:30;6.05;;;4.60;;
49223;SDS011;35050;51.316;5.994;2024-01-30T08:58:55;7.95;;;5.10;;
49223;SDS011;35050;51.316;5.994;2024-01-30T09:01:21;6.53;;;4.45;;
49223;SDS011;35050;51.316;5.994;2024-01-30T09:03:47;5.63;;;4.30;;
49223;SDS011;35050;51.316;5.994;2024-01-30T09:06:13;6.60;;;4.65;;
49223;SDS011;35050;51.316;5.994;2024-01-30T09:08:38;6.85;;;4.90;;
49223;SDS011;35050;51.316;5.994;2024-01-30T09:11:14;8.85;;;4.82;;
49223;SDS011;35050;51.316;5.994;2024-01-30T09:13:40;8.98;;;5.00;;
49223;SDS011;35050;51.316;5.994;2024-01-30T09:16:06;8.07;;;5.20;;
49223;SDS011;35050;51.316;5.994;2024-01-30T09:18:32;11.65;;;4.80;;
49223;SDS011;35050;51.316;5.994;2024-01-30T09:20:58;7.90;;;5.18;;
49223;SDS011;35050;51.316;5.994;2024-01-30T09:23:24;7.03;;;5.18;;
49223;SDS011;35050;51.316;5.994;2024-01-30T09:25:52;7.45;;;4.55;;
49223;SDS011;35050;51.316;5.994;2024-01-30T09:28:17;6.45;;;4.35;;
49223;SDS011;35050;51.316;5.994;2024-01-30T09:30:43;4.90;;;4.00;;
49223;SDS011;35050;51.316;5.994;2024-01-30T09:33:08;6.30;;;5.10;;
49223;SDS011;35050;51.316;5.994;2024-01-30T09:35:34;8.18;;;4.70;;
49223;SDS011;35050;51.316;5.994;2024-01-30T09:38:01;6.97;;;4.63;;
49223;SDS011;35050;51.316;5.994;2024-01-30T09:40:27;7.20;;;5.00;;
49223;SDS011;35050;51.316;5.994;2024-01-30T09:42:53;8.68;;;4.80;;
49223;SDS011;35050;51.316;5.994;2024-01-30T09:45:20;7.40;;;4.60;;
49223;SDS011;35050;51.316;5.994;2024-01-30T09:47:50;6.55;;;4.55;;
49223;SDS011;35050;51.316;5.994;2024-01-30T09:50:15;11.75;;;5.03;;
49223;SDS011;35050;51.316;5.994;2024-01-30T09:52:45;6.97;;;4.95;;
49223;SDS011;35050;51.316;5.994;2024-01-30T09:55:12;6.97;;;5.22;;
49223;SDS011;35050;51.316;5.994;2024-01-30T09:57:38;6.18;;;4.35;;
49223;SDS011;35050;51.316;5.994;2024-01-30T10:00:04;10.20;;;5.15;;
49223;SDS011;35050;51.316;5.994;2024-01-30T10:02:33;7.50;;;4.63;;
49223;SDS011;35050;51.316;5.994;2024-01-30T10:04:59;7.32;;;4.72;;
49223;SDS011;35050;51.316;5.994;2024-01-30T10:07:25;8.15;;;4.82;;
49223;SDS011;35050;51.316;5.994;2024-01-30T10:09:52;8.05;;;4.13;;
49223;SDS011;35050;51.316;5.994;2024-01-30T10:12:19;7.32;;;4.60;;
49223;SDS011;35050;51.316;5.994;2024-01-30T10:14:44;10.98;;;4.95;;
49223;SDS011;35050;51.316;5.994;2024-01-30T10:17:11;8.38;;;5.05;;
49223;SDS011;35050;51.316;5.994;2024-01-30T10:19:38;5.68;;;4.43;;
49223;SDS011;35050;51.316;5.994;2024-01-30T10:22:05;7.25;;;4.70;;
49223;SDS011;35050;51.316;5.994;2024-01-30T10:24:30;6.43;;;4.53;;
49223;SDS011;35050;51.316;5.994;2024-01-30T10:26:58;8.55;;;4.85;;
49223;SDS011;35050;51.316;5.994;2024-01-30T10:29:23;7.60;;;4.70;;
49223;SDS011;35050;51.316;5.994;2024-01-30T10:32:02;8.52;;;5.05;;
49223;SDS011;35050;51.316;5.994;2024-01-30T10:34:29;7.72;;;4.97;;
49223;SDS011;35050;51.316;5.994;2024-01-30T10:37:16;6.78;;;4.85;;
49223;SDS011;35050;51.316;5.994;2024-01-30T10:39:42;6.22;;;4.40;;
49223;SDS011;35050;51.316;5.994;2024-01-30T10:42:12;9.43;;;5.93;;
49223;SDS011;35050;51.316;5.994;2024-01-30T10:47:47;11.27;;;6.00;;
49223;SDS011;35050;51.316;5.994;2024-01-30T10:50:15;9.95;;;5.95;;
49223;SDS011;35050;51.316;5.994;2024-01-30T10:52:41;8.98;;;5.43;;
49223;SDS011;35050;51.316;5.994;2024-01-30T10:55:08;7.53;;;4.85;;
49223;SDS011;35050;51.316;5.994;2024-01-30T10:57:34;7.95;;;4.60;;
49223;SDS011;35050;51.316;5.994;2024-01-30T11:00:04;8.18;;;4.65;;
49223;SDS011;35050;51.316;5.994;2024-01-30T11:02:39;6.95;;;4.10;;
49223;SDS011;35050;51.316;5.994;2024-01-30T11:05:06;9.70;;;5.20;;
49223;SDS011;35050;51.316;5.994;2024-01-30T11:07:33;9.95;;;4.82;;
49223;SDS011;35050;51.316;5.994;2024-01-30T11:09:59;6.13;;;4.38;;
49223;SDS011;35050;51.316;5.994;2024-01-30T11:12:33;6.15;;;4.38;;
49223;SDS011;35050;51.316;5.994;2024-01-30T11:15:06;7.68;;;4.55;;
49223;SDS011;35050;51.316;5.994;2024-01-30T11:20:25;8.65;;;5.60;;
49223;SDS011;35050;51.316;5.994;2024-01-30T11:22:56;7.95;;;5.03;;
49223;SDS011;35050;51.316;5.994;2024-01-30T11:25:23;8.07;;;4.60;;
49223;SDS011;35050;51.316;5.994;2024-01-30T11:27:50;9.50;;;4.80;;
49223;SDS011;35050;51.316;5.994;2024-01-30T11:30:50;9.48;;;5.43;;
49223;SDS011;35050;51.316;5.994;2024-01-30T11:33:10;11.27;;;6.05;;
49223;SDS011;35050;51.316;5.994;2024-01-30T11:35:38;7.90;;;5.20;;
49223;SDS011;35050;51.316;5.994;2024-01-30T11:38:07;12.13;;;5.70;;
49223;SDS011;35050;51.316;5.994;2024-01-30T11:40:34;10.73;;;5.57;;
49223;SDS011;35050;51.316;5.994;2024-01-30T11:43:02;10.35;;;5.60;;
49223;SDS011;35050;51.316;5.994;2024-01-30T11:45:29;12.13;;;5.55;;
49223;SDS011;35050;51.316;5.994;2024-01-30T11:47:56;9.85;;;5.85;;
49223;SDS011;35050;51.316;5.994;2024-01-30T11:50:22;12.50;;;6.05;;
49223;SDS011;35050;51.316;5.994;2024-01-30T11:52:47;12.18;;;6.00;;
49223;SDS011;35050;51.316;5.994;2024-01-30T11:55:14;9.98;;;5.78;;
49223;SDS011;35050;51.316;5.994;2024-01-30T11:57:40;9.20;;;5.95;;
49223;SDS011;35050;51.316;5.994;2024-01-30T12:00:06;12.27;;;5.60;;
49223;SDS011;35050;51.316;5.994;2024-01-30T12:02:39;10.02;;;5.78;;
49223;SDS011;35050;51.316;5.994;2024-01-30T12:05:05;13.93;;;5.70;;
49223;SDS011;35050;51.316;5.994;2024-01-30T12:07:32;11.85;;;6.40;;
49223;SDS011;35050;51.316;5.994;2024-01-30T12:09:58;10.93;;;6.03;;
49223;SDS011;35050;51.316;5.994;2024-01-30T12:12:25;9.63;;;5.82;;
49223;SDS011;35050;51.316;5.994;2024-01-30T12:14:51;9.80;;;5.07;;
49223;SDS011;35050;51.316;5.994;2024-01-30T12:17:29;10.23;;;5.75;;
49223;SDS011;35050;51.316;5.994;2024-01-30T12:20:05;8.90;;;5.68;;
49223;SDS011;35050;51.316;5.994;2024-01-30T12:22:36;9.23;;;5.45;;
49223;SDS011;35050;51.316;5.994;2024-01-30T12:25:07;9.95;;;6.22;;
49223;SDS011;35050;51.316;5.994;2024-01-30T12:27:33;9.77;;;6.70;;
49223;SDS011;35050;51.316;5.994;2024-01-30T12:29:59;11.23;;;6.20;;
49223;SDS011;35050;51.316;5.994;2024-01-30T12:32:25;10.88;;;6.10;;
49223;SDS011;35050;51.316;5.994;2024-01-30T12:34:54;9.73;;;5.80;;
49223;SDS011;35050;51.316;5.994;2024-01-30T12:37:21;8.55;;;5.13;;
49223;SDS011;35050;51.316;5.994;2024-01-30T12:39:48;9.82;;;6.25;;
49223;SDS011;35050;51.316;5.994;2024-01-30T12:42:13;13.27;;;6.90;;
49223;SDS011;35050;51.316;5.994;2024-01-30T12:44:40;11.00;;;5.65;;
49223;SDS011;35050;51.316;5.994;2024-01-30T12:47:08;9.38;;;6.05;;
49223;SDS011;35050;51.316;5.994;2024-01-30T12:49:34;11.63;;;6.07;;
49223;SDS011;35050;51.316;5.994;2024-01-30T12:52:00;10.93;;;6.43;;
49223;SDS011;35050;51.316;5.994;2024-01-30T12:54:26;13.13;;;6.28;;
49223;SDS011;35050;51.316;5.994;2024-01-30T12:56:52;7.90;;;6.03;;
49223;SDS011;35050;51.316;5.994;2024-01-30T12:59:17;9.98;;;6.40;;
49223;SDS011;35050;51.316;5.994;2024-01-30T13:01:43;9.73;;;5.85;;
49223;SDS011;35050;51.316;5.994;2024-01-30T13:04:08;13.25;;;6.07;;
49223;SDS011;35050;51.316;5.994;2024-01-30T13:06:34;6.82;;;5.20;;
49223;SDS011;35050;51.316;5.994;2024-01-30T13:09:00;9.52;;;5.88;;
49223;SDS011;35050;51.316;5.994;2024-01-30T13:11:25;9.55;;;6.43;;
49223;SDS011;35050;51.316;5.994;2024-01-30T13:13:51;8.93;;;5.45;;
49223;SDS011;35050;51.316;5.994;2024-01-30T13:16:17;9.45;;;5.80;;
49223;SDS011;35050;51.316;5.994;2024-01-30T13:18:43;10.88;;;5.95;;
49223;SDS011;35050;51.316;5.994;2024-01-30T13:21:09;9.75;;;5.60;;
49223;SDS011;35050;51.316;5.994;2024-01-30T13:23:35;8.45;;;5.75;;
49223;SDS011;35050;51.316;5.994;2024-01-30T13:26:00;12.65;;;7.00;;
49223;SDS011;35050;51.316;5.994;2024-01-30T13:28:27;9.00;;;5.72;;
49223;SDS011;35050;51.316;5.994;2024-01-30T13:30:53;8.43;;;5.32;;
49223;SDS011;35050;51.316;5.994;2024-01-30T13:33:18;9.10;;;5.00;;
49223;SDS011;35050;51.316;5.994;2024-01-30T13:35:44;8.07;;;4.50;;
49223;SDS011;35050;51.316;5.994;2024-01-30T13:38:09;7.20;;;4.00;;
49223;SDS011;35050;51.316;5.994;2024-01-30T13:40:35;8.05;;;3.42;;
49223;SDS011;35050;51.316;5.994;2024-01-30T13:43:01;7.10;;;3.33;;
49223;SDS011;35050;51.316;5.994;2024-01-30T13:45:27;9.38;;;2.85;;
49223;SDS011;35050;51.316;5.994;2024-01-30T13:47:52;8.13;;;3.25;;
49223;SDS011;35050;51.316;5.994;2024-01-30T13:50:18;9.13;;;3.05;;
49223;SDS011;35050;51.316;5.994;2024-01-30T13:52:44;7.35;;;2.40;;
49223;SDS011;35050;51.316;5.994;2024-01-30T13:55:09;5.88;;;2.80;;
49223;SDS011;35050;51.316;5.994;2024-01-30T13:57:36;6.40;;;2.20;;
49223;SDS011;35050;51.316;5.994;2024-01-30T14:00:05;5.00;;;2.10;;
49223;SDS011;35050;51.316;5.994;2024-01-30T14:02:31;5.68;;;2.30;;
49223;SDS011;35050;51.316;5.994;2024-01-30T14:04:57;6.57;;;2.53;;
49223;SDS011;35050;51.316;5.994;2024-01-30T14:07:23;5.72;;;2.00;;
49223;SDS011;35050;51.316;5.994;2024-01-30T14:09:49;5.07;;;2.00;;
49223;SDS011;35050;51.316;5.994;2024-01-30T14:12:15;5.05;;;1.83;;
49223;SDS011;35050;51.316;5.994;2024-01-30T14:14:41;4.43;;;1.77;;
49223;SDS011;35050;51.316;5.994;2024-01-30T14:17:06;4.60;;;1.50;;
49223;SDS011;35050;51.316;5.994;2024-01-30T14:19:35;6.13;;;2.08;;
49223;SDS011;35050;51.316;5.994;2024-01-30T14:22:01;3.25;;;1.20;;
49223;SDS011;35050;51.316;5.994;2024-01-30T14:24:27;4.63;;;1.23;;
49223;SDS011;35050;51.316;5.994;2024-01-30T14:26:52;2.20;;;0.70;;
49223;SDS011;35050;51.316;5.994;2024-01-30T14:29:18;2.05;;;0.98;;
49223;SDS011;35050;51.316;5.994;2024-01-30T14:31:44;1.80;;;0.90;;
49223;SDS011;35050;51.316;5.994;2024-01-30T14:34:10;3.08;;;1.10;;
49223;SDS011;35050;51.316;5.994;2024-01-30T14:36:38;4.32;;;1.10;;
49223;SDS011;35050;51.316;5.994;2024-01-30T14:39:04;1.85;;;0.55;;
49223;SDS011;35050;51.316;5.994;2024-01-30T14:41:31;1.48;;;0.70;;
49223;SDS011;35050;51.316;5.994;2024-01-30T14:43:57;2.67;;;1.00;;
49223;SDS011;35050;51.316;5.994;2024-01-30T14:46:23;1.10;;;0.57;;